createdAt,value
2019-03-25T00:01:56.855Z,41.56
2019-03-25T00:04:27.074Z,41.61
2019-03-25T00:06:57.225Z,41.66
2019-03-25T00:09:27.307Z,41.66
2019-03-25T00:11:57.451Z,42.01
2019-03-25T00:14:27.635Z,42.20
2019-03-25T00:16:57.809Z,42.72
2019-03-25T00:19:27.870Z,43.81
2019-03-25T00:21:58.148Z,43.98
2019-03-25T00:24:38.286Z,44.35
2019-03-25T00:27:00.459Z,44.85
2019-03-25T00:29:30.611Z,44.99
2019-03-25T00:32:00.888Z,45.45
2019-03-25T00:34:30.935Z,45.36
2019-03-25T00:37:01.235Z,45.63
2019-03-25T00:39:31.389Z,46.16
2019-03-25T00:42:01.662Z,46.26
2019-03-25T00:44:31.815Z,46.44
2019-03-25T00:47:01.907Z,46.49
2019-03-25T00:49:32.189Z,46.39
2019-03-25T00:52:02.549Z,46.26
2019-03-25T00:54:32.776Z,46.13
2019-03-25T00:57:02.896Z,46.11
2019-03-25T00:59:33.067Z,45.83
2019-03-25T01:02:03.186Z,45.83
2019-03-25T01:04:33.388Z,45.78
2019-03-25T01:07:03.627Z,45.88
2019-03-25T01:09:33.813Z,45.91
2019-03-25T01:12:03.881Z,45.95
2019-03-25T01:14:34.038Z,45.91
2019-03-25T01:17:04.327Z,45.99
2019-03-25T01:19:34.474Z,46.04
2019-03-25T01:22:04.779Z,46.22
2019-03-25T01:24:35.141Z,46.30
2019-03-25T01:27:05.314Z,46.62
2019-03-25T01:29:35.564Z,46.64
2019-03-25T01:32:05.743Z,46.79
2019-03-25T01:34:36.024Z,46.76
2019-03-25T01:37:06.204Z,46.98
2019-03-25T01:39:36.578Z,47.11
2019-03-25T01:42:06.775Z,47.20
2019-03-25T01:44:36.926Z,47.46
2019-03-25T01:47:07.078Z,47.62
2019-03-25T01:49:37.245Z,47.88
2019-03-25T01:52:07.434Z,48.29
2019-03-25T01:54:37.699Z,48.43
2019-03-25T01:57:07.914Z,48.62
2019-03-25T01:59:38.218Z,49.01
2019-03-25T02:02:08.304Z,49.18
2019-03-25T02:04:38.378Z,49.35
2019-03-25T02:07:08.472Z,49.34
2019-03-25T02:09:38.617Z,49.28
2019-03-25T02:12:08.918Z,49.22
2019-03-25T02:14:39.092Z,49.16
2019-03-25T02:17:09.191Z,49.12
2019-03-25T02:19:39.350Z,49.12
2019-03-25T02:22:09.505Z,49.28
2019-03-25T02:24:39.714Z,49.41
2019-03-25T02:27:09.964Z,49.36
2019-03-25T02:29:40.052Z,49.20
2019-03-25T02:32:10.284Z,49.15
2019-03-25T02:34:40.484Z,49.07
2019-03-25T02:37:10.857Z,48.97
2019-03-25T02:39:40.965Z,48.97
2019-03-25T02:42:11.227Z,48.96
2019-03-25T02:44:41.364Z,48.92
2019-03-25T02:47:11.644Z,49.00
2019-03-25T02:49:41.831Z,48.94
2019-03-25T02:52:12.209Z,49.00
2019-03-25T02:54:42.275Z,49.79
2019-03-25T02:57:12.531Z,49.86
2019-03-25T02:59:42.693Z,49.93
2019-03-25T03:02:12.958Z,49.84
2019-03-25T03:04:43.136Z,49.76
2019-03-25T03:07:13.545Z,50.22
2019-03-25T03:09:43.592Z,50.44
2019-03-25T03:12:13.780Z,51.71
2019-03-25T03:14:43.943Z,52.46
2019-03-25T03:17:14.117Z,52.72
2019-03-25T03:19:44.172Z,53.38
2019-03-25T03:22:14.568Z,53.56
2019-03-25T03:24:44.844Z,53.47
2019-03-25T03:27:15.105Z,53.44
2019-03-25T03:29:45.453Z,53.12
2019-03-25T03:32:15.740Z,53.08
2019-03-25T03:34:45.968Z,52.83
2019-03-25T03:37:16.062Z,52.59
2019-03-25T03:39:46.253Z,52.27
2019-03-25T03:42:16.390Z,51.90
2019-03-25T03:44:46.559Z,52.10
2019-03-25T03:47:16.749Z,52.13
2019-03-25T03:49:47.118Z,52.01
2019-03-25T03:52:17.214Z,51.98
2019-03-25T03:54:47.243Z,52.48
2019-03-25T03:57:17.385Z,52.57
2019-03-25T03:59:47.611Z,52.95
2019-03-25T04:02:17.634Z,52.95
2019-03-25T04:04:47.746Z,52.78
2019-03-25T04:07:17.896Z,52.07
2019-03-25T04:09:48.068Z,52.07
2019-03-25T04:12:18.235Z,52.03
2019-03-25T04:14:48.421Z,53.19
2019-03-25T04:17:18.455Z,53.19
2019-03-25T04:19:48.539Z,53.82
2019-03-25T04:22:18.705Z,53.82
2019-03-25T04:24:48.767Z,55.41
2019-03-25T04:27:19.023Z,54.66
2019-03-25T04:29:49.122Z,53.92
2019-03-25T04:32:19.175Z,53.24
2019-03-25T04:34:49.374Z,52.71
2019-03-25T04:37:19.537Z,52.37
2019-03-25T04:39:49.736Z,52.17
2019-03-25T04:42:19.762Z,53.03
2019-03-25T04:44:50.046Z,52.46
2019-03-25T04:47:20.118Z,52.29
2019-03-25T04:49:50.287Z,52.31
2019-03-25T04:52:20.361Z,53.39
2019-03-25T04:54:50.549Z,53.42
2019-03-25T04:57:20.598Z,53.31
2019-03-25T04:59:50.731Z,53.07
2019-03-25T05:02:20.898Z,52.97
2019-03-25T05:04:50.963Z,52.79
2019-03-25T05:07:21.318Z,52.51
2019-03-25T05:09:51.406Z,52.51
2019-03-25T05:12:21.541Z,52.58
2019-03-25T05:14:51.619Z,51.37
2019-03-25T05:17:21.676Z,50.84
2019-03-25T05:19:51.789Z,50.15
2019-03-25T05:22:21.976Z,49.86
2019-03-25T05:24:52.033Z,49.30
2019-03-25T05:27:22.222Z,49.33
2019-03-25T05:29:52.341Z,49.54
2019-03-25T05:32:22.429Z,49.49
2019-03-25T05:34:52.584Z,49.42
2019-03-25T05:37:22.744Z,49.38
2019-03-25T05:39:52.948Z,49.23
2019-03-25T05:42:23.207Z,48.69
2019-03-25T05:44:53.402Z,48.32
2019-03-25T05:47:23.546Z,48.42
2019-03-25T05:49:53.733Z,48.99
2019-03-25T05:52:23.890Z,48.87
2019-03-25T05:54:53.984Z,48.48
2019-03-25T05:57:24.136Z,48.29
2019-03-25T05:59:54.246Z,47.92
2019-03-25T06:02:24.387Z,47.30
2019-03-25T06:04:54.447Z,47.11
2019-03-25T06:07:24.607Z,47.20
2019-03-25T06:09:54.703Z,46.84
2019-03-25T06:12:24.875Z,46.93
2019-03-25T06:14:55.047Z,46.58
2019-03-25T06:17:25.225Z,46.22
2019-03-25T06:19:55.389Z,45.95
2019-03-25T06:22:25.618Z,46.87
2019-03-25T06:24:55.719Z,46.54
2019-03-25T06:27:25.891Z,46.13
2019-03-25T06:29:56.067Z,45.74
2019-03-25T06:32:26.201Z,45.05
2019-03-25T06:34:56.320Z,44.94
2019-03-25T06:37:26.509Z,44.57
2019-03-25T06:39:56.692Z,44.63
2019-03-25T06:42:26.775Z,44.88
2019-03-25T06:44:57.017Z,45.10
2019-03-25T06:47:27.212Z,45.26
2019-03-25T06:49:57.456Z,45.57
2019-03-25T06:52:27.659Z,45.46
2019-03-25T06:54:57.823Z,45.38
2019-03-25T06:57:28.005Z,45.59
2019-03-25T06:59:58.170Z,46.27
2019-03-25T07:02:28.332Z,46.24
2019-03-25T07:04:58.597Z,46.88
2019-03-25T07:07:28.878Z,46.89
2019-03-25T07:09:59.041Z,47.41
2019-03-25T07:12:29.100Z,46.83
2019-03-25T07:14:59.297Z,46.67
2019-03-25T07:17:29.539Z,46.08
2019-03-25T07:19:59.860Z,45.08
2019-03-25T07:22:30.088Z,44.91
2019-03-25T07:25:00.353Z,45.21
2019-03-25T07:27:36.689Z,45.41
2019-03-25T07:30:02.371Z,44.75
2019-03-25T07:32:32.318Z,44.46
2019-03-25T07:35:02.628Z,44.19
2019-03-25T07:37:32.781Z,43.83
2019-03-25T07:40:02.943Z,43.79
2019-03-25T07:42:33.126Z,45.12
2019-03-25T07:45:03.370Z,47.05
2019-03-25T07:47:33.773Z,49.23
2019-03-25T07:50:03.916Z,50.86
2019-03-25T07:52:33.990Z,51.58
2019-03-25T07:55:04.095Z,53.64
2019-03-25T07:57:35.097Z,54.64
2019-03-25T08:00:13.530Z,53.93
2019-03-25T08:02:37.800Z,54.84
2019-03-25T08:05:07.977Z,55.51
2019-03-25T08:07:38.219Z,55.28
2019-03-25T08:10:08.391Z,54.54
2019-03-25T08:12:38.423Z,54.95
2019-03-25T08:15:09.471Z,57.10
2019-03-25T08:17:39.625Z,58.21
2019-03-25T08:20:10.089Z,60.12
2019-03-25T08:22:40.254Z,62.44
2019-03-25T08:25:10.474Z,63.66
2019-03-25T08:27:40.748Z,62.48
2019-03-25T08:30:10.975Z,62.34
2019-03-25T08:32:41.116Z,60.83
2019-03-25T08:35:11.263Z,60.15
2019-03-25T08:37:41.892Z,59.95
2019-03-25T08:40:12.017Z,54.32
2019-03-25T08:42:42.239Z,46.34
2019-03-25T08:45:12.791Z,37.34
2019-03-25T08:47:43.068Z,35.06
2019-03-25T08:50:13.170Z,35.15
2019-03-25T08:52:43.311Z,32.83
2019-03-25T08:55:14.117Z,32.07
2019-03-25T08:57:44.450Z,30.83
2019-03-25T09:00:16.187Z,31.32
2019-03-25T09:02:46.471Z,30.33
2019-03-25T09:05:17.082Z,32.11
2019-03-25T09:07:47.311Z,33.35
2019-03-25T09:10:19.888Z,31.12
2019-03-25T09:12:49.995Z,33.75
2019-03-25T09:15:20.156Z,33.32
2019-03-25T09:17:50.324Z,33.17
2019-03-25T09:20:20.617Z,32.74
2019-03-25T09:22:50.893Z,32.64
2019-03-25T09:25:21.048Z,32.99
2019-03-25T09:27:51.296Z,35.16
2019-03-25T09:30:56.581Z,37.74
2019-03-25T09:33:26.882Z,38.26
2019-03-25T09:35:57.150Z,39.64
2019-03-25T09:38:27.442Z,35.31
2019-03-25T09:40:58.020Z,34.22
2019-03-25T09:43:28.174Z,32.38
2019-03-25T09:45:58.339Z,28.88
2019-03-25T09:48:29.327Z,28.64
2019-03-25T09:50:59.937Z,28.50
2019-03-25T09:53:30.086Z,29.52
2019-03-25T09:56:00.165Z,28.79
2019-03-25T09:58:36.310Z,28.25
2019-03-25T10:01:02.789Z,26.18
2019-03-25T10:03:33.301Z,26.08
2019-03-25T10:06:03.430Z,24.57
2019-03-25T10:08:33.909Z,22.82
2019-03-25T10:11:03.952Z,21.43
2019-03-25T10:13:34.304Z,22.29
2019-03-25T10:16:04.513Z,23.26
2019-03-25T10:18:34.589Z,24.07
2019-03-25T10:21:04.710Z,22.96
2019-03-25T10:23:35.049Z,23.69
2019-03-25T10:26:05.649Z,23.61
2019-03-25T10:28:47.546Z,24.49
2019-03-25T10:31:07.696Z,24.32
2019-03-25T10:33:38.154Z,25.81
2019-03-25T10:36:08.577Z,26.72
2019-03-25T10:38:38.873Z,26.05
2019-03-25T10:41:09.080Z,26.78
2019-03-25T10:43:39.519Z,27.49
2019-03-25T10:46:09.724Z,27.20
2019-03-25T10:48:39.934Z,27.75
2019-03-25T10:51:10.174Z,28.54
2019-03-25T10:53:40.691Z,30.19
2019-03-25T10:56:10.831Z,30.85
2019-03-25T10:58:40.996Z,28.96
2019-03-25T11:01:10.951Z,26.75
2019-03-25T11:03:41.116Z,26.00
2019-03-25T11:06:11.199Z,25.43
2019-03-25T11:08:41.413Z,25.80
2019-03-25T11:11:12.963Z,27.00
2019-03-25T11:13:43.146Z,28.31
2019-03-25T11:16:13.543Z,28.49
2019-03-25T11:18:43.761Z,27.38
2019-03-25T11:21:14.009Z,26.05
2019-03-25T11:23:44.157Z,25.44
2019-03-25T11:26:14.334Z,25.06
2019-03-25T11:28:44.966Z,25.66
2019-03-25T11:31:15.429Z,23.82
2019-03-25T11:33:45.687Z,24.23
2019-03-25T11:36:16.175Z,25.30
2019-03-25T11:38:46.321Z,25.95
2019-03-25T11:41:16.505Z,25.29
2019-03-25T11:43:46.687Z,26.15
2019-03-25T11:46:16.948Z,32.17
2019-03-25T11:48:47.091Z,40.18
2019-03-25T11:51:17.192Z,45.66
2019-03-25T11:53:49.261Z,49.71
2019-03-25T11:56:19.585Z,49.41
2019-03-25T11:58:49.701Z,46.48
2019-03-25T12:01:20.022Z,45.56
2019-03-25T12:03:50.287Z,42.58
2019-03-25T12:06:21.451Z,41.68
2019-03-25T12:08:51.653Z,39.58
2019-03-25T12:11:23.674Z,36.54
2019-03-25T12:13:53.763Z,35.68
2019-03-25T12:16:24.005Z,36.17
2019-03-25T12:18:54.165Z,33.95
2019-03-25T12:21:24.488Z,33.58
2019-03-25T12:23:54.556Z,33.98
2019-03-25T12:26:24.811Z,35.58
2019-03-25T12:28:54.895Z,38.64
2019-03-25T12:31:25.131Z,44.50
2019-03-25T12:33:55.234Z,46.11
2019-03-25T12:36:25.453Z,47.45
2019-03-25T12:38:55.477Z,46.78
2019-03-25T12:41:25.765Z,44.77
2019-03-25T12:43:55.890Z,41.67
2019-03-25T12:46:26.084Z,43.74
2019-03-25T12:48:56.525Z,46.12
2019-03-25T12:51:27.059Z,47.51
2019-03-25T12:53:58.818Z,48.31
2019-03-25T12:56:29.139Z,47.81
2019-03-25T12:58:59.408Z,45.96
2019-03-25T13:01:29.946Z,44.45
2019-03-25T13:04:00.014Z,43.34
2019-03-25T13:06:30.094Z,40.36
2019-03-25T13:09:00.371Z,39.64
2019-03-25T13:11:30.539Z,38.34
2019-03-25T13:14:00.647Z,37.69
2019-03-25T13:16:30.834Z,37.32
2019-03-25T13:19:01.069Z,35.86
2019-03-25T13:21:31.446Z,34.79
2019-03-25T13:24:01.495Z,33.60
2019-03-25T13:26:31.784Z,31.63
2019-03-25T13:29:02.669Z,32.96
2019-03-25T13:31:33.016Z,31.89
2019-03-25T13:34:03.109Z,31.31
2019-03-25T13:36:33.394Z,32.07
2019-03-25T13:39:03.560Z,33.00
2019-03-25T13:41:33.830Z,33.44
2019-03-25T13:44:04.043Z,33.03
2019-03-25T13:46:34.203Z,32.48
2019-03-25T13:49:04.371Z,34.57
2019-03-25T13:51:34.468Z,41.63
2019-03-25T13:54:06.927Z,52.51
2019-03-25T13:56:36.657Z,54.54
2019-03-25T13:59:06.846Z,53.59
2019-03-25T14:01:36.908Z,52.97
2019-03-25T14:04:07.164Z,49.75
2019-03-25T14:06:37.336Z,48.72
2019-03-25T14:09:08.302Z,47.43
2019-03-25T14:11:38.408Z,42.91
2019-03-25T14:14:08.566Z,43.99
2019-03-25T14:16:38.707Z,43.07
2019-03-25T14:19:09.116Z,45.02
2019-03-25T14:21:39.284Z,42.20
2019-03-25T14:24:09.546Z,41.95
2019-03-25T14:26:39.633Z,39.90
2019-03-25T14:29:09.869Z,40.44
2019-03-25T14:31:40.076Z,40.62
2019-03-25T14:34:10.318Z,42.83
2019-03-25T14:36:40.395Z,46.60
2019-03-25T14:39:10.630Z,46.97
2019-03-25T14:41:40.740Z,45.25
2019-03-25T14:44:11.061Z,44.88
2019-03-25T14:46:41.090Z,43.65
2019-03-25T14:49:11.297Z,45.66
2019-03-25T14:51:41.347Z,44.38
2019-03-25T14:54:11.609Z,44.98
2019-03-25T14:56:41.859Z,45.92
2019-03-25T14:59:11.953Z,46.53
2019-03-25T15:01:42.269Z,50.65
2019-03-25T15:04:12.384Z,51.51
2019-03-25T15:06:42.546Z,54.05
2019-03-25T15:09:13.165Z,53.89
2019-03-25T15:11:43.446Z,51.02
2019-03-25T15:14:13.697Z,49.57
2019-03-25T15:16:44.196Z,45.75
2019-03-25T15:19:14.434Z,46.49
2019-03-25T15:21:44.765Z,45.09
2019-03-25T15:24:14.854Z,45.01
2019-03-25T15:26:45.820Z,49.10
2019-03-25T15:29:15.989Z,50.18
2019-03-25T15:31:46.138Z,49.86
2019-03-25T15:34:16.314Z,49.21
2019-03-25T15:36:46.378Z,49.06
2019-03-25T15:39:16.458Z,50.47
2019-03-25T15:41:47.353Z,50.76
2019-03-25T15:44:17.421Z,50.54
2019-03-25T15:46:55.369Z,50.61
2019-03-25T15:49:19.311Z,50.24
2019-03-25T15:51:49.516Z,51.10
2019-03-25T15:54:19.645Z,50.17
2019-03-25T15:56:49.883Z,49.35
2019-03-25T15:59:20.010Z,49.83
2019-03-25T16:01:50.140Z,51.05
2019-03-25T16:04:20.518Z,51.25
2019-03-25T16:06:51.344Z,52.05
2019-03-25T16:09:21.534Z,51.76
2019-03-25T16:11:51.789Z,54.20
2019-03-25T16:14:21.961Z,53.88
2019-03-25T16:16:52.227Z,55.26
2019-03-25T16:19:22.624Z,55.72
2019-03-25T16:21:53.319Z,54.96
2019-03-25T16:24:24.157Z,55.37
2019-03-25T16:26:54.405Z,57.31
2019-03-25T16:29:24.610Z,57.69
2019-03-25T16:31:54.776Z,58.54
2019-03-25T16:34:24.950Z,60.02
2019-03-25T16:36:55.186Z,62.85
2019-03-25T16:39:25.321Z,63.58
2019-03-25T16:41:55.489Z,64.00
2019-03-25T16:44:25.805Z,63.51
2019-03-25T16:46:55.992Z,63.94
2019-03-25T16:49:26.109Z,63.66
2019-03-25T16:51:56.315Z,65.38
2019-03-25T16:54:26.476Z,68.17
2019-03-25T16:56:56.658Z,67.20
2019-03-25T16:59:26.929Z,68.10
2019-03-25T17:01:57.088Z,67.35
2019-03-25T17:04:27.248Z,67.62
2019-03-25T17:06:57.427Z,66.48
2019-03-25T17:09:27.730Z,63.60
2019-03-25T17:11:57.976Z,65.49
2019-03-25T17:14:28.250Z,65.65
2019-03-25T17:16:58.314Z,64.93
2019-03-25T17:19:28.484Z,64.74
2019-03-25T17:21:58.672Z,65.11
2019-03-25T17:24:28.752Z,66.58
2019-03-25T17:26:58.920Z,67.29
2019-03-25T17:29:29.182Z,67.46
2019-03-25T17:31:59.259Z,66.67
2019-03-25T17:34:29.414Z,67.69
2019-03-25T17:36:59.485Z,68.68
2019-03-25T17:39:29.751Z,69.65
2019-03-25T17:41:59.836Z,70.37
2019-03-25T17:44:29.993Z,70.34
2019-03-25T17:47:00.139Z,70.57
2019-03-25T17:49:30.319Z,71.21
2019-03-25T17:52:00.484Z,71.01
2019-03-25T17:54:30.591Z,71.86
2019-03-25T17:57:00.622Z,70.75
2019-03-25T17:59:30.698Z,70.40
2019-03-25T18:02:00.796Z,70.87
2019-03-25T18:04:31.059Z,71.45
2019-03-25T18:07:01.434Z,70.83
2019-03-25T18:09:31.574Z,69.70
2019-03-25T18:12:01.851Z,70.25
2019-03-25T18:14:32.151Z,70.47
2019-03-25T18:17:02.344Z,70.75
2019-03-25T18:19:32.621Z,69.59
2019-03-25T18:22:02.659Z,69.86
2019-03-25T18:24:32.812Z,70.09
2019-03-25T18:27:02.878Z,69.43
2019-03-25T18:29:32.978Z,68.75
2019-03-25T18:32:03.240Z,68.56
2019-03-25T18:34:33.496Z,68.30
2019-03-25T18:37:03.786Z,67.63
2019-03-25T18:39:33.927Z,67.47
2019-03-25T18:42:04.215Z,67.44
2019-03-25T18:44:34.347Z,66.22
2019-03-25T18:47:04.720Z,65.59
2019-03-25T18:49:34.713Z,65.06
2019-03-25T18:52:04.893Z,64.83
2019-03-25T18:54:35.025Z,64.46
2019-03-25T18:57:05.198Z,64.31
2019-03-25T18:59:35.382Z,64.61
2019-03-25T19:02:05.514Z,64.48
2019-03-25T19:04:35.618Z,63.64
2019-03-25T19:07:06.051Z,63.16
2019-03-25T19:09:36.191Z,63.83
2019-03-25T19:12:06.352Z,63.35
2019-03-25T19:14:36.497Z,63.88
2019-03-25T19:17:06.709Z,63.46
2019-03-25T19:19:36.765Z,64.73
2019-03-25T19:22:07.062Z,64.38
2019-03-25T19:24:37.280Z,65.04
2019-03-25T19:27:07.497Z,64.75
2019-03-25T19:29:37.764Z,64.42
2019-03-25T19:32:08.020Z,64.50
2019-03-25T19:34:38.275Z,63.91
2019-03-25T19:37:08.280Z,64.40
2019-03-25T19:39:38.458Z,63.89
2019-03-25T19:42:08.643Z,64.48
2019-03-25T19:44:38.710Z,64.54
2019-03-25T19:47:09.097Z,64.37
2019-03-25T19:49:39.186Z,63.94
2019-03-25T19:52:09.645Z,64.03
2019-03-25T19:54:39.984Z,63.50
2019-03-25T19:57:10.161Z,63.26
2019-03-25T19:59:40.103Z,63.45
2019-03-25T20:02:18.776Z,63.38
2019-03-25T20:04:42.065Z,63.49
2019-03-25T20:07:12.150Z,64.58
2019-03-25T20:09:42.596Z,64.36
2019-03-25T20:12:12.886Z,66.55
2019-03-25T20:14:43.083Z,65.77
2019-03-25T20:17:13.332Z,65.15
2019-03-25T20:19:43.596Z,64.95
2019-03-25T20:22:14.047Z,65.09
2019-03-25T20:24:44.119Z,64.87
2019-03-25T20:27:14.368Z,64.81
2019-03-25T20:29:44.344Z,65.12
2019-03-25T20:32:14.620Z,64.93
2019-03-25T20:34:44.646Z,64.49
2019-03-25T20:37:14.925Z,66.02
2019-03-25T20:39:44.996Z,68.39
2019-03-25T20:42:15.165Z,69.90
2019-03-25T20:44:45.341Z,69.55
2019-03-25T20:47:15.527Z,68.96
2019-03-25T20:49:45.629Z,67.38
2019-03-25T20:52:15.748Z,67.58
2019-03-25T20:54:45.844Z,66.65
2019-03-25T20:57:16.064Z,65.96
2019-03-25T20:59:46.209Z,65.36
2019-03-25T21:02:16.516Z,64.68
2019-03-25T21:04:46.688Z,66.17
2019-03-25T21:07:16.815Z,66.75
2019-03-25T21:09:46.943Z,65.68
2019-03-25T21:12:17.201Z,64.58
2019-03-25T21:14:47.412Z,64.36
2019-03-25T21:17:17.745Z,65.04
2019-03-25T21:19:47.890Z,64.85
2019-03-25T21:22:18.158Z,65.66
2019-03-25T21:24:48.301Z,66.85
2019-03-25T21:27:18.588Z,66.84
2019-03-25T21:29:48.843Z,66.32
2019-03-25T21:32:19.190Z,66.23
2019-03-25T21:34:49.314Z,65.42
2019-03-25T21:37:19.396Z,66.12
2019-03-25T21:39:49.432Z,66.40
2019-03-25T21:42:19.736Z,65.41
2019-03-25T21:44:49.788Z,64.47
2019-03-25T21:47:20.082Z,65.39
2019-03-25T21:49:50.119Z,64.42
2019-03-25T21:52:20.421Z,64.33
2019-03-25T21:54:51.012Z,63.63
2019-03-25T21:57:21.485Z,64.02
2019-03-25T21:59:51.628Z,63.73
2019-03-25T22:02:21.707Z,63.26
2019-03-25T22:04:51.910Z,63.84
2019-03-25T22:07:22.072Z,63.90
2019-03-25T22:09:52.227Z,63.68
2019-03-25T22:12:22.272Z,63.16
2019-03-25T22:14:52.587Z,62.79
2019-03-25T22:17:22.710Z,62.52
2019-03-25T22:19:52.784Z,62.90
2019-03-25T22:22:22.876Z,62.68
2019-03-25T22:24:53.131Z,62.93
2019-03-25T22:27:23.209Z,63.01
2019-03-25T22:29:53.306Z,62.90
2019-03-25T22:32:23.405Z,63.23
2019-03-25T22:34:53.563Z,63.51
2019-03-25T22:37:23.813Z,63.20
2019-03-25T22:39:53.921Z,63.09
2019-03-25T22:42:24.089Z,63.03
2019-03-25T22:44:54.127Z,63.11
2019-03-25T22:47:24.321Z,63.29
2019-03-25T22:49:54.473Z,63.49
2019-03-25T22:52:24.743Z,63.62
2019-03-25T22:54:54.853Z,63.56
2019-03-25T22:57:25.007Z,63.40
2019-03-25T22:59:55.076Z,63.49
2019-03-25T23:02:25.256Z,63.10
2019-03-25T23:04:55.454Z,63.49
2019-03-25T23:07:25.695Z,63.31
2019-03-25T23:09:55.755Z,63.85
2019-03-25T23:12:26.012Z,64.03
2019-03-25T23:14:56.114Z,64.21
2019-03-25T23:17:26.294Z,64.32
2019-03-25T23:19:56.357Z,64.70
2019-03-25T23:22:26.549Z,65.02
2019-03-25T23:24:56.634Z,65.57
2019-03-25T23:27:26.777Z,65.55
2019-03-25T23:29:56.899Z,65.60
2019-03-25T23:32:27.003Z,65.24
2019-03-25T23:34:57.176Z,65.29
2019-03-25T23:37:27.533Z,65.64
2019-03-25T23:39:57.748Z,65.56
2019-03-25T23:42:27.958Z,65.17
2019-03-25T23:44:58.173Z,66.04
2019-03-25T23:47:28.402Z,66.45
2019-03-25T23:49:58.600Z,65.44
2019-03-25T23:52:28.778Z,66.00
2019-03-25T23:54:58.916Z,65.48
2019-03-25T23:57:29.124Z,65.56
2019-03-25T23:59:59.195Z,65.52
